Time;durP1;ratioP1;P1;durP2;ratioP2;P2;SDS_P1;SDS_P2;PMS_P1;PMS_P2;Temp;Humidity;BMP_temperature;BMP_pressure;BME280_temperature;BME280_humidity;BME280_pressure;Samples;Min_cycle;Max_cycle;Signal;HPM_P1;HPM_P2
2021/10/12 00:00:13;;;;;;;;;;;18.30;45.70;;;;;;8235104;28;20379;-49
2021/10/12 00:04:14;;;;;;;;;;;18.30;45.70;;;;;;8235111;28;19961;-49
2021/10/12 00:08:14;;;;;;;;;;;18.30;45.70;;;;;;8235804;28;19949;-49
2021/10/12 00:12:15;;;;;;;;;;;18.30;45.70;;;;;;8234555;28;20001;-48
2021/10/12 00:16:16;;;;;;;;;;;18.30;45.70;;;;;;8234797;28;19922;-49
2021/10/12 00:20:17;;;;;;;;;;;18.30;45.70;;;;;;8234624;28;19917;-48
2021/10/12 00:24:17;;;;;;;;;;;18.20;45.70;;;;;;8234435;28;20276;-48
2021/10/12 00:28:17;;;;;;;;;;;18.20;45.70;;;;;;8235019;28;20017;-48
2021/10/12 00:32:18;;;;;;;;;;;18.20;45.70;;;;;;8234317;28;19941;-49
2021/10/12 00:36:18;;;;;;;;;;;18.20;45.70;;;;;;8233739;28;19918;-49
2021/10/12 00:40:19;;;;;;;;;;;18.30;45.70;;;;;;8234204;28;20024;-49
2021/10/12 00:44:19;;;;;;;;;;;18.20;45.70;;;;;;8212046;28;19914;-48
2021/10/12 00:48:20;;;;;;;;;;;18.20;45.70;;;;;;8227935;28;20279;-49
2021/10/12 00:52:20;;;;;;;;;;;18.20;45.80;;;;;;8233994;28;19972;-49
2021/10/12 00:56:21;;;;;;;;;;;18.20;45.70;;;;;;8233796;28;20283;-49
2021/10/12 01:00:22;;;;;;;;;;;18.20;45.80;;;;;;8233103;28;19921;-49
2021/10/12 01:04:23;;;;;;;;;;;18.20;45.70;;;;;;8233174;28;20386;-48
2021/10/12 01:08:23;;;;;;;;;;;18.20;45.80;;;;;;8233351;28;20004;-49
2021/10/12 01:12:24;;;;;;;;;;;18.20;45.80;;;;;;8232943;28;19921;-47
2021/10/12 01:16:24;;;;;;;;;;;18.20;45.80;;;;;;8233299;28;20294;-48
2021/10/12 01:20:25;;;;;;;;;;;18.20;45.80;;;;;;8234058;28;19981;-48
2021/10/12 01:24:26;;;;;;;;;;;18.20;45.80;;;;;;8232811;28;19914;-51
2021/10/12 01:28:28;;;;;;;;;;;18.20;45.80;;;;;;8233351;28;20011;-49
2021/10/12 01:32:29;;;;;;;;;;;18.20;45.80;;;;;;8233227;28;20290;-49
2021/10/12 01:36:29;;;;;;;;;;;18.20;45.80;;;;;;8233364;28;19917;-50
2021/10/12 01:40:30;;;;;;;;;;;18.20;45.80;;;;;;8233012;28;19922;-50
2021/10/12 01:44:30;;;;;;;;;;;18.20;45.80;;;;;;8232953;28;19914;-49
2021/10/12 01:48:33;;;;;;;;;;;18.20;45.80;;;;;;8232225;28;19921;-50
2021/10/12 01:52:34;;;;;;;;;;;18.20;45.80;;;;;;8233864;28;19918;-49
2021/10/12 01:56:34;;;;;;;;;;;18.20;45.80;;;;;;8232633;28;19989;-49
2021/10/12 02:00:35;;;;;;;;;;;18.20;45.80;;;;;;8232067;28;20261;-49
2021/10/12 02:04:35;;;;;;;;;;;18.20;45.90;;;;;;8232628;28;19914;-49
2021/10/12 02:08:36;;;;;;;;;;;18.20;45.80;;;;;;8232390;28;19994;-49
2021/10/12 02:12:37;;;;;;;;;;;18.20;45.80;;;;;;8234581;28;20038;-49
2021/10/12 02:16:37;;;;;;;;;;;18.20;45.80;;;;;;8238716;28;20260;-49
2021/10/12 02:20:38;;;;;;;;;;;18.20;45.90;;;;;;8238390;28;20371;-49
2021/10/12 02:24:38;;;;;;;;;;;18.10;45.80;;;;;;8238008;28;19914;-50
2021/10/12 02:28:39;;;;;;;;;;;18.20;45.80;;;;;;8239082;28;19910;-49
2021/10/12 02:32:39;;;;;;;;;;;18.20;45.90;;;;;;8237718;28;20361;-47
2021/10/12 02:36:39;;;;;;;;;;;18.20;45.90;;;;;;8238190;28;19914;-50
2021/10/12 02:40:40;;;;;;;;;;;18.20;45.90;;;;;;8237792;28;19965;-50
2021/10/12 02:44:41;;;;;;;;;;;18.10;45.80;;;;;;8237735;28;19964;-49
2021/10/12 02:48:41;;;;;;;;;;;18.10;45.80;;;;;;8238124;28;19924;-49
2021/10/12 02:52:42;;;;;;;;;;;18.10;45.90;;;;;;8237903;28;19918;-50
2021/10/12 02:56:42;;;;;;;;;;;18.10;45.80;;;;;;8237031;28;20394;-50
2021/10/12 03:00:42;;;;;;;;;;;18.10;45.90;;;;;;8237103;28;19937;-51
2021/10/12 03:04:43;;;;;;;;;;;18.10;45.90;;;;;;8237700;28;19909;-49
2021/10/12 03:08:43;;;;;;;;;;;18.10;45.90;;;;;;8236573;28;20006;-50
2021/10/12 03:12:44;;;;;;;;;;;18.10;45.90;;;;;;8237170;28;19918;-49
2021/10/12 03:16:44;;;;;;;;;;;18.10;45.90;;;;;;8236564;28;20386;-49
2021/10/12 03:20:45;;;;;;;;;;;18.10;45.90;;;;;;8236806;28;20295;-50
2021/10/12 03:24:45;;;;;;;;;;;18.10;45.90;;;;;;8235722;28;20323;-50
2021/10/12 03:28:46;;;;;;;;;;;18.10;45.90;;;;;;8236610;28;20386;-50
2021/10/12 03:32:46;;;;;;;;;;;18.20;45.90;;;;;;8235792;28;20366;-50
2021/10/12 03:36:47;;;;;;;;;;;18.10;45.90;;;;;;8236311;28;19914;-49
2021/10/12 03:40:47;;;;;;;;;;;18.10;45.90;;;;;;8236557;28;19933;-49
2021/10/12 03:44:47;;;;;;;;;;;18.10;45.90;;;;;;8235573;28;19917;-50
2021/10/12 03:48:48;;;;;;;;;;;18.10;45.90;;;;;;8235856;28;19915;-50
2021/10/12 03:52:48;;;;;;;;;;;18.10;45.90;;;;;;8235988;28;19922;-49
2021/10/12 03:56:49;;;;;;;;;;;18.10;45.90;;;;;;8235768;28;19910;-50
2021/10/12 04:00:49;;;;;;;;;;;18.10;45.90;;;;;;8235344;28;19961;-50
2021/10/12 04:04:50;;;;;;;;;;;18.10;45.90;;;;;;8234580;28;19921;-49
2021/10/12 04:08:50;;;;;;;;;;;18.10;45.90;;;;;;8234730;28;19920;-49
2021/10/12 04:12:51;;;;;;;;;;;18.10;46.00;;;;;;8235708;28;19956;-49
2021/10/12 04:16:51;;;;;;;;;;;18.10;46.00;;;;;;8234990;28;20076;-50
2021/10/12 04:20:51;;;;;;;;;;;18.10;45.90;;;;;;8234611;28;19926;-49
2021/10/12 04:24:52;;;;;;;;;;;18.10;45.90;;;;;;8234911;28;19921;-49
2021/10/12 04:28:52;;;;;;;;;;;18.10;46.00;;;;;;8234773;28;19916;-49
2021/10/12 04:32:53;;;;;;;;;;;18.10;45.90;;;;;;8234725;28;20381;-52
2021/10/12 04:36:57;;;;;;;;;;;18.10;45.90;;;;;;8234421;28;19914;-50
2021/10/12 04:40:57;;;;;;;;;;;18.10;46.00;;;;;;8234193;28;19926;-50
2021/10/12 04:44:58;;;;;;;;;;;18.10;46.00;;;;;;8233921;28;19921;-48
2021/10/12 04:48:58;;;;;;;;;;;18.10;45.90;;;;;;8234918;28;20378;-50
2021/10/12 04:52:59;;;;;;;;;;;18.10;45.90;;;;;;8234202;28;20363;-50
2021/10/12 04:56:59;;;;;;;;;;;18.10;46.00;;;;;;8233562;28;19921;-52
2021/10/12 05:01:00;;;;;;;;;;;18.10;45.90;;;;;;8233868;28;20016;-49
2021/10/12 05:05:00;;;;;;;;;;;18.10;46.00;;;;;;8234457;28;19914;-47
2021/10/12 05:09:01;;;;;;;;;;;18.10;46.00;;;;;;8233191;28;19914;-48
2021/10/12 05:13:01;;;;;;;;;;;18.10;45.90;;;;;;8233308;28;20379;-48
2021/10/12 05:17:04;;;;;;;;;;;18.10;46.00;;;;;;8233690;28;19921;-51
2021/10/12 05:21:04;;;;;;;;;;;18.10;46.00;;;;;;8232902;28;19930;-48
2021/10/12 05:25:05;;;;;;;;;;;18.10;46.00;;;;;;8233918;28;20006;-51
2021/10/12 05:29:05;;;;;;;;;;;18.10;46.00;;;;;;8233225;28;19941;-49
2021/10/12 05:33:13;;;;;;;;;;;18.10;46.00;;;;;;8232918;28;19914;-48
2021/10/12 05:37:14;;;;;;;;;;;18.10;46.00;;;;;;8232950;28;20360;-49
2021/10/12 05:41:14;;;;;;;;;;;18.10;46.00;;;;;;8233423;28;19929;-49
2021/10/12 05:45:15;;;;;;;;;;;18.10;46.00;;;;;;8232415;28;19924;-49
2021/10/12 05:49:15;;;;;;;;;;;18.10;46.00;;;;;;8237613;28;20383;-49
2021/10/12 05:57:21;;;;;;;;;;;18.10;46.00;;;;;;8239024;28;20312;-52
2021/10/12 06:01:22;;;;;;;;;;;18.10;46.00;;;;;;8240035;28;19961;-51
2021/10/12 06:05:23;;;;;;;;;;;18.10;46.00;;;;;;8239157;28;19921;-47
2021/10/12 06:09:23;;;;;;;;;;;18.10;46.00;;;;;;8238395;28;20000;-47
2021/10/12 06:13:24;;;;;;;;;;;18.10;46.00;;;;;;8238605;28;20371;-50
2021/10/12 06:17:24;;;;;;;;;;;18.10;46.10;;;;;;8239273;28;19974;-49
2021/10/12 06:21:25;;;;;;;;;;;18.10;46.10;;;;;;8237933;28;20333;-48
2021/10/12 06:25:25;;;;;;;;;;;18.10;46.10;;;;;;8238332;28;19921;-53
2021/10/12 06:29:25;;;;;;;;;;;18.10;46.10;;;;;;8238143;28;19961;-49
2021/10/12 06:33:26;;;;;;;;;;;18.20;46.10;;;;;;8238385;28;19917;-50
2021/10/12 06:37:27;;;;;;;;;;;18.10;46.10;;;;;;8238180;28;19918;-49
2021/10/12 06:41:27;;;;;;;;;;;18.10;46.00;;;;;;8237743;28;19925;-49
2021/10/12 06:45:28;;;;;;;;;;;18.20;46.10;;;;;;8237595;28;19918;-50
2021/10/12 06:49:28;;;;;;;;;;;18.10;46.00;;;;;;8237845;28;19918;-48
2021/10/12 06:53:28;;;;;;;;;;;18.20;46.60;;;;;;8238537;28;19918;-47
2021/10/12 06:57:29;;;;;;;;;;;18.20;46.10;;;;;;8236780;28;19914;-48
2021/10/12 07:01:29;;;;;;;;;;;18.20;46.10;;;;;;8236849;28;19968;-49
2021/10/12 07:05:30;;;;;;;;;;;18.20;46.10;;;;;;8237357;28;20299;-48
2021/10/12 07:09:30;;;;;;;;;;;18.10;46.10;;;;;;8236394;28;19937;-48
2021/10/12 07:13:31;;;;;;;;;;;18.10;46.10;;;;;;8236844;28;19921;-48
2021/10/12 07:17:32;;;;;;;;;;;18.10;46.10;;;;;;8236553;28;19956;-48
2021/10/12 07:21:33;;;;;;;;;;;18.10;46.10;;;;;;8235886;28;19929;-48
2021/10/12 07:25:33;;;;;;;;;;;18.10;46.60;;;;;;8236634;28;19965;-51
2021/10/12 07:29:34;;;;;;;;;;;18.10;46.10;;;;;;8236667;28;20381;-49
2021/10/12 07:33:35;;;;;;;;;;;18.10;46.20;;;;;;8235444;28;19982;-48
2021/10/12 07:37:37;;;;;;;;;;;18.10;46.20;;;;;;8236039;28;20261;-50
2021/10/12 07:41:38;;;;;;;;;;;18.10;46.20;;;;;;8235574;28;19942;-48
2021/10/12 07:45:39;;;;;;;;;;;18.10;46.70;;;;;;8236707;28;19910;-51
2021/10/12 07:49:39;;;;;;;;;;;18.10;46.20;;;;;;8235976;28;20000;-51
2021/10/12 07:53:40;;;;;;;;;;;18.10;46.20;;;;;;8235697;28;19925;-49
2021/10/12 07:57:40;;;;;;;;;;;18.10;46.20;;;;;;8235761;28;19914;-50
2021/10/12 08:01:41;;;;;;;;;;;18.10;46.20;;;;;;8236306;28;19922;-49
2021/10/12 08:05:42;;;;;;;;;;;18.10;46.20;;;;;;8234975;28;19918;-51
2021/10/12 08:09:42;;;;;;;;;;;18.10;46.20;;;;;;8234982;28;20431;-49
2021/10/12 08:13:43;;;;;;;;;;;18.10;46.30;;;;;;8235345;28;19929;-51
2021/10/12 08:17:44;;;;;;;;;;;18.10;46.20;;;;;;8234767;28;19914;-51
2021/10/12 08:21:44;;;;;;;;;;;18.10;46.30;;;;;;8235574;28;19918;-48
2021/10/12 08:25:45;;;;;;;;;;;18.10;46.30;;;;;;8234515;28;20001;-52
2021/10/12 08:29:45;;;;;;;;;;;18.10;46.30;;;;;;8234027;28;20009;-49
2021/10/12 08:33:46;;;;;;;;;;;18.10;46.30;;;;;;8234746;28;19914;-48
2021/10/12 08:37:47;;;;;;;;;;;18.10;46.30;;;;;;8236215;28;19946;-51
2021/10/12 08:41:53;;;;;;;;;;;18.10;46.30;;;;;;8235159;28;19929;-48
2021/10/12 08:45:54;;;;;;;;;;;18.10;46.30;;;;;;8235768;28;20291;-49
2021/10/12 08:49:54;;;;;;;;;;;18.10;46.30;;;;;;8235167;28;19914;-51
2021/10/12 08:53:55;;;;;;;;;;;18.20;46.30;;;;;;8234282;28;20371;-49
2021/10/12 08:57:55;;;;;;;;;;;18.20;46.30;;;;;;8234198;28;20357;-49
2021/10/12 09:02:00;;;;;;;;;;;18.20;46.30;;;;;;8233874;28;20017;-48
2021/10/12 09:06:02;;;;;;;;;;;18.20;46.20;;;;;;8233473;28;19968;-50
2021/10/12 09:10:03;;;;;;;;;;;18.20;46.20;;;;;;8233684;28;20421;-51
2021/10/12 09:14:04;;;;;;;;;;;18.20;46.20;;;;;;8234040;28;19957;-52
2021/10/12 09:18:05;;;;;;;;;;;18.20;46.20;;;;;;8232585;28;19986;-50
2021/10/12 09:22:06;;;;;;;;;;;18.20;46.20;;;;;;8232490;28;20409;-48
2021/10/12 09:26:19;;;;;;;;;;;18.20;46.20;;;;;;8233200;28;20363;-48
2021/10/12 09:30:28;;;;;;;;;;;18.20;46.20;;;;;;8233170;28;19921;-48
2021/10/12 09:34:28;;;;;;;;;;;18.20;46.20;;;;;;8233839;28;20332;-50
2021/10/12 09:38:29;;;;;;;;;;;18.20;46.20;;;;;;8233208;28;19914;-50
2021/10/12 09:42:40;;;;;;;;;;;18.20;46.20;;;;;;8232314;28;20344;-50
2021/10/12 09:46:48;;;;;;;;;;;18.20;46.20;;;;;;8232711;28;19940;-49
2021/10/12 09:50:48;;;;;;;;;;;18.20;46.30;;;;;;8233431;28;19941;-48
2021/10/12 09:54:52;;;;;;;;;;;18.20;46.30;;;;;;8233133;28;19918;-50
2021/10/12 09:58:53;;;;;;;;;;;18.20;46.30;;;;;;8232613;28;19942;-47
2021/10/12 10:02:54;;;;;;;;;;;18.20;46.30;;;;;;8232038;28;20282;-48
2021/10/12 10:07:02;;;;;;;;;;;18.20;46.30;;;;;;8233128;28;19957;-51
2021/10/12 10:11:04;;;;;;;;;;;18.20;46.30;;;;;;8232793;28;19946;-48
2021/10/12 10:15:05;;;;;;;;;;;18.20;46.30;;;;;;8232203;28;19921;-50
2021/10/12 10:19:06;;;;;;;;;;;18.30;46.40;;;;;;8232658;28;19914;-49
2021/10/12 10:23:07;;;;;;;;;;;18.30;46.30;;;;;;8232223;28;19960;-49
2021/10/12 10:27:27;;;;;;;;;;;18.30;46.30;;;;;;8232491;28;19946;-50
2021/10/12 10:31:38;;;;;;;;;;;18.30;46.20;;;;;;8232084;28;20322;-50
2021/10/12 10:35:38;;;;;;;;;;;18.30;46.10;;;;;;8236613;28;19910;-49
2021/10/12 10:39:39;;;;;;;;;;;18.30;46.10;;;;;;8237865;28;19950;-49
2021/10/12 10:43:48;;;;;;;;;;;18.40;46.10;;;;;;8237727;28;19949;-49
2021/10/12 10:47:50;;;;;;;;;;;18.30;46.00;;;;;;8238007;28;19920;-48
2021/10/12 10:52:04;;;;;;;;;;;18.40;46.10;;;;;;8237469;28;19921;-48
2021/10/12 10:56:05;;;;;;;;;;;18.40;46.10;;;;;;8237567;28;19914;-49
2021/10/12 11:00:11;;;;;;;;;;;18.40;46.10;;;;;;8237076;28;19914;-48
2021/10/12 11:04:30;;;;;;;;;;;18.40;46.10;;;;;;8237483;28;19918;-51
2021/10/12 11:08:32;;;;;;;;;;;18.40;46.10;;;;;;8237864;28;19917;-48
2021/10/12 11:12:39;;;;;;;;;;;18.40;46.10;;;;;;8236635;28;20060;-51
2021/10/12 11:16:39;;;;;;;;;;;18.40;46.10;;;;;;8237001;28;19914;-49
2021/10/12 11:20:40;;;;;;;;;;;18.40;46.10;;;;;;8236411;28;19922;-51
2021/10/12 11:24:43;;;;;;;;;;;18.40;46.10;;;;;;8237113;28;19948;-50
2021/10/12 11:28:53;;;;;;;;;;;18.40;46.10;;;;;;8235165;28;19914;-49
2021/10/12 11:32:55;;;;;;;;;;;18.40;46.10;;;;;;8235953;28;19936;-51
2021/10/12 11:37:05;;;;;;;;;;;18.40;46.10;;;;;;8236552;28;19917;-51
2021/10/12 11:41:22;;;;;;;;;;;18.50;46.20;;;;;;8236002;28;19922;-48
2021/10/12 11:45:23;;;;;;;;;;;18.50;46.10;;;;;;8235405;28;19957;-47
2021/10/12 11:49:23;;;;;;;;;;;18.50;46.10;;;;;;8235758;28;19953;-47
2021/10/12 11:53:30;;;;;;;;;;;18.50;46.10;;;;;;8235798;28;19918;-48
2021/10/12 11:57:30;;;;;;;;;;;18.50;46.00;;;;;;8235119;28;19922;-47
2021/10/12 12:01:35;;;;;;;;;;;18.50;46.00;;;;;;8235443;28;19988;-48
2021/10/12 12:05:35;;;;;;;;;;;18.60;45.90;;;;;;8236242;28;19914;-48
2021/10/12 12:09:39;;;;;;;;;;;18.50;45.90;;;;;;8234741;28;19921;-48
2021/10/12 12:13:40;;;;;;;;;;;18.60;46.00;;;;;;8234964;28;19914;-49
2021/10/12 12:17:40;;;;;;;;;;;18.60;46.00;;;;;;8234428;28;19985;-50
2021/10/12 12:21:41;;;;;;;;;;;18.60;46.00;;;;;;8235727;28;20415;-47
2021/10/12 12:25:41;;;;;;;;;;;18.60;46.00;;;;;;8234888;28;19918;-47
2021/10/12 12:29:41;;;;;;;;;;;18.60;46.00;;;;;;8234060;28;19918;-49
2021/10/12 12:33:42;;;;;;;;;;;18.60;45.90;;;;;;8234729;28;19914;-48
2021/10/12 12:37:42;;;;;;;;;;;18.60;45.90;;;;;;8234733;28;19910;-49
2021/10/12 12:41:43;;;;;;;;;;;18.60;45.90;;;;;;8234460;28;19926;-48
2021/10/12 12:45:44;;;;;;;;;;;18.60;45.90;;;;;;8234215;28;19938;-51
2021/10/12 12:49:44;;;;;;;;;;;18.60;45.90;;;;;;8234143;28;20017;-49
2021/10/12 12:53:46;;;;;;;;;;;18.60;45.90;;;;;;8233910;28;19926;-49
2021/10/12 12:57:56;;;;;;;;;;;18.60;45.90;;;;;;8234317;28;19949;-52
2021/10/12 13:01:56;;;;;;;;;;;18.60;45.90;;;;;;8231621;28;20299;-51
2021/10/12 13:05:56;;;;;;;;;;;18.70;45.90;;;;;;8233177;28;20009;-52
2021/10/12 13:09:57;;;;;;;;;;;18.70;45.90;;;;;;8232853;28;19921;-48
2021/10/12 13:13:58;;;;;;;;;;;18.70;45.90;;;;;;8233624;28;19921;-52
2021/10/12 13:17:59;;;;;;;;;;;18.70;46.40;;;;;;8232451;28;19922;-47
2021/10/12 13:21:59;;;;;;;;;;;18.70;45.80;;;;;;8232798;28;19926;-48
2021/10/12 13:26:00;;;;;;;;;;;18.70;45.80;;;;;;8232832;28;19914;-49
2021/10/12 13:30:00;;;;;;;;;;;18.70;45.80;;;;;;8232369;28;19956;-49
2021/10/12 13:34:01;;;;;;;;;;;18.70;45.80;;;;;;8233611;28;19952;-51
2021/10/12 13:38:01;;;;;;;;;;;18.70;45.70;;;;;;8233017;28;19968;-50
2021/10/12 13:42:02;;;;;;;;;;;18.70;45.80;;;;;;8231999;28;19922;-50
2021/10/12 13:46:02;;;;;;;;;;;18.70;45.80;;;;;;8232703;28;20370;-48
2021/10/12 13:50:04;;;;;;;;;;;18.70;45.80;;;;;;8233024;28;19929;-50
2021/10/12 13:54:05;;;;;;;;;;;18.70;45.80;;;;;;8232366;28;19918;-50
2021/10/12 13:58:05;;;;;;;;;;;18.70;45.80;;;;;;8233270;28;19914;-49
2021/10/12 14:02:06;;;;;;;;;;;18.70;45.80;;;;;;8232621;28;19972;-47
2021/10/12 14:06:06;;;;;;;;;;;18.70;45.80;;;;;;8232241;28;20009;-49
2021/10/12 14:10:08;;;;;;;;;;;18.70;45.80;;;;;;8237353;28;20402;-50
2021/10/12 14:14:09;;;;;;;;;;;18.70;45.80;;;;;;8238847;28;19920;-50
2021/10/12 14:18:09;;;;;;;;;;;18.70;45.80;;;;;;8237959;28;19914;-50
2021/10/12 14:22:10;;;;;;;;;;;18.70;45.80;;;;;;8238535;28;19921;-48
2021/10/12 14:26:10;;;;;;;;;;;18.70;45.80;;;;;;8239250;28;19918;-49
2021/10/12 14:30:11;;;;;;;;;;;18.70;45.70;;;;;;8238007;28;19937;-50
2021/10/12 14:34:11;;;;;;;;;;;18.70;45.70;;;;;;8238229;28;19914;-49
2021/10/12 14:38:12;;;;;;;;;;;18.70;45.70;;;;;;8237936;28;20411;-52
2021/10/12 14:42:12;;;;;;;;;;;18.70;45.70;;;;;;8237969;28;19957;-49
2021/10/12 14:46:13;;;;;;;;;;;18.70;45.70;;;;;;8237588;28;19921;-49
2021/10/12 14:50:17;;;;;;;;;;;18.70;45.70;;;;;;8237871;28;20001;-49
2021/10/12 14:54:17;;;;;;;;;;;18.70;45.70;;;;;;8237523;28;19918;-51
2021/10/12 14:58:18;;;;;;;;;;;18.70;45.60;;;;;;8237639;28;20029;-55
2021/10/12 15:02:18;;;;;;;;;;;18.70;45.70;;;;;;8237985;28;19980;-49
2021/10/12 15:06:19;;;;;;;;;;;18.70;45.60;;;;;;8236729;28;19921;-51
2021/10/12 15:10:19;;;;;;;;;;;18.70;45.60;;;;;;8236932;28;19918;-51
2021/10/12 15:14:20;;;;;;;;;;;18.70;45.60;;;;;;8236731;28;19917;-50
2021/10/12 15:18:20;;;;;;;;;;;18.70;45.60;;;;;;8237136;28;20299;-50
2021/10/12 15:22:20;;;;;;;;;;;18.70;45.60;;;;;;8234056;28;19922;-49
2021/10/12 15:26:21;;;;;;;;;;;18.70;45.60;;;;;;8235754;28;19910;-49
2021/10/12 15:30:22;;;;;;;;;;;18.70;45.60;;;;;;8235667;28;19922;-49
2021/10/12 15:34:22;;;;;;;;;;;18.80;45.70;;;;;;8236987;28;19957;-51
2021/10/12 15:38:22;;;;;;;;;;;18.80;45.60;;;;;;8236131;28;20004;-50
2021/10/12 15:42:23;;;;;;;;;;;18.80;45.60;;;;;;8235469;28;20374;-51
2021/10/12 15:46:23;;;;;;;;;;;18.70;45.50;;;;;;8235859;28;19910;-49
2021/10/12 15:50:24;;;;;;;;;;;18.80;45.50;;;;;;8235947;28;20323;-48
2021/10/12 15:54:24;;;;;;;;;;;18.80;45.50;;;;;;8236285;28;19922;-50
2021/10/12 15:58:25;;;;;;;;;;;18.70;45.50;;;;;;8235364;28;20413;-54
2021/10/12 16:02:25;;;;;;;;;;;18.70;45.50;;;;;;8235413;28;19918;-51
2021/10/12 16:06:26;;;;;;;;;;;18.70;45.50;;;;;;8234213;28;20005;-49
2021/10/12 16:10:26;;;;;;;;;;;18.70;45.60;;;;;;8235669;28;19941;-50
2021/10/12 16:14:29;;;;;;;;;;;18.70;45.60;;;;;;8234780;28;19914;-48
2021/10/12 16:22:49;;;;;;;;;;;18.70;45.60;;;;;;8234850;28;19925;-52
2021/10/12 16:26:50;;;;;;;;;;;18.70;45.60;;;;;;8234112;28;20280;-50
2021/10/12 16:30:51;;;;;;;;;;;18.70;45.60;;;;;;8234992;28;20268;-50
2021/10/12 16:34:54;;;;;;;;;;;18.70;45.60;;;;;;8234243;28;19914;-50
2021/10/12 16:38:54;;;;;;;;;;;18.70;45.60;;;;;;8233881;28;20291;-49
2021/10/12 16:42:55;;;;;;;;;;;18.70;45.60;;;;;;8234043;28;19980;-50
2021/10/12 16:46:55;;;;;;;;;;;18.70;45.50;;;;;;8234920;28;19920;-49
2021/10/12 16:50:56;;;;;;;;;;;18.70;45.60;;;;;;8233685;28;19957;-49
2021/10/12 16:54:56;;;;;;;;;;;18.70;45.60;;;;;;8234274;28;19922;-51
2021/10/12 16:59:12;;;;;;;;;;;18.70;45.60;;;;;;8233942;28;20356;-50
2021/10/12 17:03:13;;;;;;;;;;;18.70;45.60;;;;;;8233291;28;19922;-50
2021/10/12 17:07:13;;;;;;;;;;;18.70;45.60;;;;;;8234265;28;19997;-50
2021/10/12 17:11:14;;;;;;;;;;;18.70;45.60;;;;;;8233507;28;19972;-49
2021/10/12 17:15:14;;;;;;;;;;;18.70;45.60;;;;;;8233149;28;19981;-50
2021/10/12 17:19:15;;;;;;;;;;;18.70;45.60;;;;;;8232586;28;20029;-49
2021/10/12 17:23:15;;;;;;;;;;;18.70;45.60;;;;;;8233532;28;19922;-50
2021/10/12 17:27:18;;;;;;;;;;;18.70;45.60;;;;;;8232598;28;19914;-49
2021/10/12 17:31:18;;;;;;;;;;;18.70;45.60;;;;;;8233150;28;19921;-51
2021/10/12 17:35:19;;;;;;;;;;;18.70;45.60;;;;;;8233049;28;19910;-50
2021/10/12 17:39:19;;;;;;;;;;;18.70;45.60;;;;;;8232802;28;20052;-49
2021/10/12 17:43:21;;;;;;;;;;;18.70;45.60;;;;;;8235213;28;20062;-51
2021/10/12 17:47:21;;;;;;;;;;;18.70;45.60;;;;;;8238418;28;19968;-49
2021/10/12 17:51:22;;;;;;;;;;;18.70;45.60;;;;;;8238145;28;19918;-50
2021/10/12 17:55:23;;;;;;;;;;;18.70;45.60;;;;;;8239596;28;19918;-49
2021/10/12 17:59:23;;;;;;;;;;;18.70;45.60;;;;;;8240134;28;19910;-49
2021/10/12 18:03:25;;;;;;;;;;;18.70;45.60;;;;;;8237768;28;20402;-49
2021/10/12 18:07:25;;;;;;;;;;;18.70;45.60;;;;;;8238926;28;19914;-49
2021/10/12 18:11:31;;;;;;;;;;;18.70;45.60;;;;;;8238707;28;19921;-50
2021/10/12 18:15:31;;;;;;;;;;;18.70;45.60;;;;;;8239411;28;19910;-51
2021/10/12 18:19:32;;;;;;;;;;;18.70;45.60;;;;;;8238958;28;20279;-50
2021/10/12 18:23:32;;;;;;;;;;;18.70;45.60;;;;;;8238343;28;19929;-48
2021/10/12 18:27:33;;;;;;;;;;;18.70;45.60;;;;;;8237923;28;20439;-49
2021/10/12 18:31:33;;;;;;;;;;;18.70;45.60;;;;;;8238466;28;19922;-50
2021/10/12 18:35:35;;;;;;;;;;;18.70;45.60;;;;;;8238944;28;19910;-50
2021/10/12 18:39:37;;;;;;;;;;;18.70;46.10;;;;;;8237567;28;19925;-50
2021/10/12 18:43:38;;;;;;;;;;;18.70;45.60;;;;;;8237948;28;19922;-52
2021/10/12 18:47:39;;;;;;;;;;;18.70;45.60;;;;;;8237505;28;19941;-49
2021/10/12 18:51:39;;;;;;;;;;;18.70;45.70;;;;;;8238397;28;19965;-53
2021/10/12 18:55:40;;;;;;;;;;;18.70;45.60;;;;;;8237216;28;19960;-51
2021/10/12 18:59:41;;;;;;;;;;;18.70;45.70;;;;;;8237033;28;19921;-51
2021/10/12 19:03:41;;;;;;;;;;;18.70;45.70;;;;;;8237156;28;20020;-52
2021/10/12 19:07:43;;;;;;;;;;;18.70;45.70;;;;;;8236973;28;20390;-51
2021/10/12 19:11:44;;;;;;;;;;;18.70;45.70;;;;;;8237206;28;19914;-50
2021/10/12 19:15:44;;;;;;;;;;;18.70;45.60;;;;;;8237266;28;20486;-52
2021/10/12 19:19:45;;;;;;;;;;;18.70;45.70;;;;;;8236902;28;19925;-50
2021/10/12 19:23:46;;;;;;;;;;;18.70;45.60;;;;;;8236455;28;20004;-48
2021/10/12 19:27:47;;;;;;;;;;;18.70;46.20;;;;;;8237290;28;19910;-48
2021/10/12 19:31:47;;;;;;;;;;;18.70;45.60;;;;;;8236391;28;20283;-48
2021/10/12 19:35:48;;;;;;;;;;;18.70;45.60;;;;;;8236021;28;19914;-47
2021/10/12 19:39:48;;;;;;;;;;;18.70;45.70;;;;;;8236529;28;20426;-51
2021/10/12 19:43:51;;;;;;;;;;;18.70;45.60;;;;;;8236786;28;20379;-49
2021/10/12 19:47:52;;;;;;;;;;;18.70;45.70;;;;;;8235612;28;19920;-52
2021/10/12 19:51:52;;;;;;;;;;;18.70;45.60;;;;;;8235913;28;19937;-49
2021/10/12 19:55:53;;;;;;;;;;;18.70;45.70;;;;;;8235780;28;19953;-49
2021/10/12 19:59:53;;;;;;;;;;;18.70;45.70;;;;;;8235234;28;20363;-49
2021/10/12 20:03:54;;;;;;;;;;;18.70;45.70;;;;;;8236474;28;19918;-51
2021/10/12 20:07:55;;;;;;;;;;;18.70;45.70;;;;;;8234901;28;19914;-47
2021/10/12 20:11:55;;;;;;;;;;;18.70;45.60;;;;;;8234960;28;19917;-48
2021/10/12 20:15:56;;;;;;;;;;;18.70;45.70;;;;;;8235297;28;19941;-48
2021/10/12 20:20:09;;;;;;;;;;;18.70;45.70;;;;;;8235914;28;19914;-48
2021/10/12 20:24:10;;;;;;;;;;;18.70;45.70;;;;;;8234548;28;19922;-50
2021/10/12 20:28:10;;;;;;;;;;;18.70;45.70;;;;;;8234791;28;19921;-48
2021/10/12 20:32:11;;;;;;;;;;;18.70;45.70;;;;;;8234728;28;19914;-48
2021/10/12 20:36:11;;;;;;;;;;;18.70;45.70;;;;;;8234148;28;19910;-47
2021/10/12 20:40:12;;;;;;;;;;;18.70;45.60;;;;;;8235358;28;20359;-48
2021/10/12 20:44:12;;;;;;;;;;;18.70;45.70;;;;;;8235737;28;19929;-47
2021/10/12 20:48:13;;;;;;;;;;;18.70;45.70;;;;;;8239775;28;19914;-47
2021/10/12 20:52:14;;;;;;;;;;;18.70;45.70;;;;;;8241159;28;20372;-48
2021/10/12 20:56:14;;;;;;;;;;;18.70;45.70;;;;;;8234911;28;19953;-51
2021/10/12 21:00:15;;;;;;;;;;;18.70;45.70;;;;;;8234289;28;20375;-49
2021/10/12 21:04:15;;;;;;;;;;;18.70;45.70;;;;;;8233643;28;19929;-48
2021/10/12 21:08:16;;;;;;;;;;;18.60;45.70;;;;;;8233803;28;19914;-49
2021/10/12 21:12:16;;;;;;;;;;;18.70;45.70;;;;;;8233915;28;19917;-50
2021/10/12 21:16:20;;;;;;;;;;;18.60;45.70;;;;;;8233529;28;19934;-48
2021/10/12 21:20:20;;;;;;;;;;;18.60;45.70;;;;;;8233557;28;19918;-49
2021/10/12 21:24:20;;;;;;;;;;;18.60;45.70;;;;;;8232564;28;19922;-47
2021/10/12 21:28:21;;;;;;;;;;;18.70;45.80;;;;;;8233432;28;19914;-49
2021/10/12 21:32:21;;;;;;;;;;;18.60;45.80;;;;;;8233821;28;19925;-50
2021/10/12 21:36:22;;;;;;;;;;;18.60;45.80;;;;;;8232783;28;20279;-47
2021/10/12 21:40:22;;;;;;;;;;;18.60;45.80;;;;;;8233229;28;19961;-48
2021/10/12 21:44:23;;;;;;;;;;;18.60;45.80;;;;;;8232859;28;20342;-49
2021/10/12 21:48:23;;;;;;;;;;;18.60;45.80;;;;;;8233102;28;20348;-48
2021/10/12 21:52:24;;;;;;;;;;;18.60;45.90;;;;;;8232933;28;20248;-49
2021/10/12 21:56:24;;;;;;;;;;;18.60;45.90;;;;;;8232755;28;19942;-49
2021/10/12 22:00:29;;;;;;;;;;;18.60;45.90;;;;;;8231825;28;19914;-49
2021/10/12 22:04:29;;;;;;;;;;;18.60;45.90;;;;;;8220090;28;20398;-49
2021/10/12 22:08:29;;;;;;;;;;;18.60;45.90;;;;;;8232985;28;19941;-49
2021/10/12 22:12:30;;;;;;;;;;;18.60;45.90;;;;;;8232188;28;19946;-49
2021/10/12 22:16:30;;;;;;;;;;;18.60;45.90;;;;;;8232490;28;19914;-49
2021/10/12 22:20:31;;;;;;;;;;;18.60;45.90;;;;;;8232746;28;19922;-49
2021/10/12 22:24:31;;;;;;;;;;;18.60;45.90;;;;;;8232603;28;20320;-49
2021/10/12 22:28:33;;;;;;;;;;;18.60;46.00;;;;;;8232580;28;19914;-49
2021/10/12 22:32:33;;;;;;;;;;;18.60;46.00;;;;;;8238670;28;20069;-48
2021/10/12 22:36:34;;;;;;;;;;;18.60;46.00;;;;;;8237742;28;19914;-49
2021/10/12 22:40:34;;;;;;;;;;;18.50;46.00;;;;;;8239066;28;19910;-48
2021/10/12 22:44:35;;;;;;;;;;;18.50;46.00;;;;;;8238040;28;19922;-49
2021/10/12 22:48:35;;;;;;;;;;;18.50;46.00;;;;;;8237458;28;19976;-49
2021/10/12 22:52:36;;;;;;;;;;;18.50;46.00;;;;;;8238133;28;20407;-48
2021/10/12 22:56:37;;;;;;;;;;;18.50;46.00;;;;;;8237832;28;19910;-48
2021/10/12 23:00:37;;;;;;;;;;;18.50;46.00;;;;;;8237828;28;20331;-49
2021/10/12 23:04:38;;;;;;;;;;;18.50;46.00;;;;;;8237501;28;19922;-49
2021/10/12 23:08:38;;;;;;;;;;;18.50;46.00;;;;;;8237476;28;19918;-49
2021/10/12 23:12:39;;;;;;;;;;;18.50;46.00;;;;;;8236791;28;19917;-49
2021/10/12 23:16:39;;;;;;;;;;;18.50;46.00;;;;;;8237732;28;19994;-48
2021/10/12 23:20:40;;;;;;;;;;;18.50;46.10;;;;;;8236526;28;19914;-48
2021/10/12 23:24:41;;;;;;;;;;;18.50;46.10;;;;;;8237071;28;20387;-49
2021/10/12 23:28:41;;;;;;;;;;;18.50;46.10;;;;;;8236546;28;19939;-49